Time;durP1;ratioP1;P1;durP2;ratioP2;P2;SDS_P1;SDS_P2;PMS_P1;PMS_P2;Temp;Humidity;BMP_temperature;BMP_pressure;BME280_temperature;BME280_humidity;BME280_pressure;Samples;Min_cycle;Max_cycle;Signal;HPM_P1;HPM_P2
2022/07/01 00:00:56;;;;;;;2.37;1.07;;;22.50;61.30;;;;;;5024055;28;20189;-46
2022/07/01 00:03:22;;;;;;;1.50;1.10;;;22.50;61.50;;;;;;5033955;28;20181;-45
2022/07/01 00:05:48;;;;;;;2.00;0.80;;;22.60;61.30;;;;;;5031314;28;20196;-45
2022/07/01 00:08:13;;;;;;;3.60;1.27;;;22.60;61.30;;;;;;5027302;28;20440;-45
2022/07/01 00:10:39;;;;;;;1.30;1.17;;;22.60;60.90;;;;;;5024960;28;20227;-45
2022/07/01 00:13:06;;;;;;;1.20;1.10;;;22.60;62.20;;;;;;5035511;28;20288;-46
2022/07/01 00:15:32;;;;;;;1.23;0.87;;;22.60;61.40;;;;;;5026924;28;20189;-45
2022/07/01 00:17:57;;;;;;;1.77;1.00;;;22.60;61.40;;;;;;5023402;28;22472;-45
2022/07/01 00:20:23;;;;;;;1.57;1.10;;;22.50;61.10;;;;;;5033926;28;20197;-45
2022/07/01 00:22:49;;;;;;;3.47;0.90;;;22.50;61.10;;;;;;5026943;28;20782;-46
2022/07/01 00:25:14;;;;;;;1.33;0.97;;;22.50;60.90;;;;;;5023469;28;20258;-47
2022/07/01 00:27:41;;;;;;;1.03;1.03;;;22.40;60.70;;;;;;5034079;28;20237;-45
2022/07/01 00:30:08;;;;;;;2.53;1.03;;;22.30;61.00;;;;;;5025504;28;20644;-48
2022/07/01 00:32:34;;;;;;;0.80;0.80;;;22.10;60.80;;;;;;5025996;28;20447;-47
2022/07/01 00:35:00;;;;;;;4.70;1.67;;;22.10;61.20;;;;;;5019887;28;20452;-45
2022/07/01 00:37:26;;;;;;;2.73;1.27;;;22.10;61.90;;;;;;5039816;28;20988;-49
2022/07/01 00:39:51;;;;;;;2.50;1.00;;;22.10;61.70;;;;;;5030354;28;20312;-46
2022/07/01 00:42:17;;;;;;;1.80;0.97;;;22.10;61.40;;;;;;5041265;28;20196;-45
2022/07/01 00:44:43;;;;;;;2.77;1.00;;;22.00;61.60;;;;;;5033998;28;20193;-45
2022/07/01 00:47:11;;;;;;;1.53;0.93;;;21.80;61.40;;;;;;5031495;28;20220;-46
2022/07/01 00:49:38;;;;;;;3.03;0.90;;;21.90;61.70;;;;;;5032770;28;20638;-45
2022/07/01 00:52:08;;;;;;;3.77;1.00;;;21.90;61.70;;;;;;5028021;28;20498;-46
2022/07/01 00:54:36;;;;;;;0.90;0.80;;;22.00;61.70;;;;;;5037164;28;20806;-45
2022/07/01 00:57:07;;;;;;;1.93;1.00;;;21.90;61.50;;;;;;5034806;28;20534;-46
2022/07/01 00:59:34;;;;;;;2.03;1.30;;;21.90;62.20;;;;;;5033694;28;20440;-45
2022/07/01 01:02:00;;;;;;;1.90;1.10;;;21.90;62.00;;;;;;5028492;28;20436;-45
2022/07/01 01:04:26;;;;;;;1.17;0.80;;;21.90;61.80;;;;;;5028394;28;20491;-48
2022/07/01 01:06:51;;;;;;;0.80;0.80;;;21.90;61.50;;;;;;5006342;28;20530;-49
2022/07/01 01:09:17;;;;;;;1.00;0.80;;;21.90;61.30;;;;;;5027759;28;20220;-50
2022/07/01 01:11:43;;;;;;;1.13;0.87;;;21.80;61.40;;;;;;5019001;28;20251;-48
2022/07/01 01:14:09;;;;;;;1.13;1.03;;;21.80;61.50;;;;;;5023424;28;20190;-49
2022/07/01 01:16:35;;;;;;;1.37;0.90;;;21.70;62.10;;;;;;5038665;28;20266;-50
2022/07/01 01:19:07;;;;;;;2.03;0.83;;;21.60;61.90;;;;;;5027958;28;20602;-49
2022/07/01 01:21:34;;;;;;;1.03;0.70;;;21.50;62.50;;;;;;5024246;28;20803;-49
2022/07/01 01:23:59;;;;;;;2.80;1.17;;;21.40;62.10;;;;;;5022525;28;20440;-46
2022/07/01 01:26:25;;;;;;;1.27;1.07;;;21.40;63.80;;;;;;5026960;28;20480;-48
2022/07/01 01:28:51;;;;;;;2.30;1.00;;;21.50;64.10;;;;;;5022236;28;20224;-48
2022/07/01 01:31:17;;;;;;;3.10;1.43;;;21.70;65.30;;;;;;5018524;28;20675;-48
2022/07/01 01:33:44;;;;;;;2.50;1.10;;;22.00;65.40;;;;;;5016646;28;20475;-49
2022/07/01 01:36:09;;;;;;;1.00;0.90;;;22.30;65.70;;;;;;5019824;28;20479;-47
2022/07/01 01:38:36;;;;;;;3.43;1.00;;;22.50;63.90;;;;;;5016702;28;20971;-48
2022/07/01 01:41:03;;;;;;;3.10;1.03;;;22.60;61.00;;;;;;5028881;28;20197;-48
2022/07/01 01:43:28;;;;;;;1.20;0.80;;;22.50;60.10;;;;;;5032571;28;20444;-46
2022/07/01 01:45:54;;;;;;;1.07;0.97;;;22.50;60.10;;;;;;5025839;28;22639;-45
2022/07/01 01:48:20;;;;;;;0.90;0.90;;;22.40;59.90;;;;;;5020591;28;20197;-49
2022/07/01 01:50:45;;;;;;;1.47;1.00;;;22.30;61.20;;;;;;5025144;28;20224;-49
2022/07/01 01:53:11;;;;;;;0.90;0.90;;;22.20;59.80;;;;;;5026648;28;20224;-49
2022/07/01 01:55:37;;;;;;;1.87;1.40;;;21.80;60.80;;;;;;5030493;28;20193;-46
2022/07/01 01:58:02;;;;;;;2.60;1.20;;;21.90;65.10;;;;;;5026022;28;20194;-49
2022/07/01 02:00:28;;;;;;;1.63;1.20;;;22.10;66.20;;;;;;5019877;28;20658;-48
2022/07/01 02:02:54;;;;;;;0.90;0.90;;;22.30;63.30;;;;;;5029045;28;20336;-50
2022/07/01 02:05:20;;;;;;;6.53;1.37;;;22.40;64.10;;;;;;5025603;28;20527;-49
2022/07/01 02:07:45;;;;;;;4.60;1.07;;;22.70;62.90;;;;;;5030939;28;20589;-47
2022/07/01 02:10:11;;;;;;;3.93;1.00;;;22.90;59.10;;;;;;5038187;28;20194;-47
2022/07/01 02:12:36;;;;;;;4.07;1.30;;;23.00;58.00;;;;;;5040528;28;20193;-50
2022/07/01 02:15:02;;;;;;;1.53;0.77;;;22.90;60.30;;;;;;5039318;28;20189;-49
2022/07/01 02:17:28;;;;;;;0.80;0.80;;;23.00;59.70;;;;;;5033855;28;20197;-47
2022/07/01 02:19:54;;;;;;;0.90;0.80;;;23.10;59.90;;;;;;5042727;28;20513;-48
2022/07/01 02:22:19;;;;;;;2.07;0.80;;;23.20;60.00;;;;;;5038436;28;20284;-48
2022/07/01 02:24:45;;;;;;;1.13;0.87;;;23.40;59.50;;;;;;5043553;28;20606;-49
2022/07/01 02:27:12;;;;;;;1.33;1.00;;;23.60;57.40;;;;;;5031625;28;20225;-48
2022/07/01 02:29:37;;;;;;;1.23;0.77;;;23.60;57.80;;;;;;5039973;28;20782;-46
2022/07/01 02:32:04;;;;;;;1.17;1.07;;;23.60;58.20;;;;;;5037124;28;20567;-48
2022/07/01 02:34:29;;;;;;;1.00;0.90;;;23.70;57.80;;;;;;5031139;28;20271;-49
2022/07/01 02:36:55;;;;;;;3.03;0.80;;;23.80;57.70;;;;;;5036770;28;20490;-45
2022/07/01 02:39:22;;;;;;;1.27;1.17;;;23.90;57.70;;;;;;5040760;28;20184;-52
2022/07/01 02:44:33;;;;;;;1.10;1.00;;;23.90;56.30;;;;;;5036937;28;20585;-46
2022/07/01 02:46:59;;;;;;;2.10;1.20;;;23.60;56.10;;;;;;5035329;28;20882;-49
2022/07/01 02:49:24;;;;;;;0.80;0.80;;;23.50;58.00;;;;;;5032061;28;20436;-48
2022/07/01 02:51:50;;;;;;;1.20;1.10;;;23.50;56.40;;;;;;5045358;28;20240;-49
2022/07/01 02:54:16;;;;;;;1.03;0.93;;;23.20;57.20;;;;;;5039494;28;20727;-49
2022/07/01 02:56:42;;;;;;;0.80;0.80;;;23.20;58.40;;;;;;5028789;28;20197;-48
2022/07/01 02:59:07;;;;;;;0.90;0.90;;;23.30;58.70;;;;;;5029705;28;20224;-49
2022/07/01 03:01:33;;;;;;;1.10;1.00;;;23.40;58.30;;;;;;5029367;28;20204;-47
2022/07/01 03:03:59;;;;;;;0.90;0.90;;;23.60;58.30;;;;;;5029950;28;20189;-47
2022/07/01 03:06:24;;;;;;;1.20;1.10;;;23.90;56.80;;;;;;5031634;28;20235;-46
2022/07/01 03:08:50;;;;;;;0.97;0.93;;;24.00;55.60;;;;;;5034136;28;20208;-47
2022/07/01 03:11:15;;;;;;;1.30;1.10;;;23.90;54.90;;;;;;5025331;28;20193;-45
2022/07/01 03:13:41;;;;;;;1.00;0.90;;;23.90;55.90;;;;;;5027201;28;20221;-49
2022/07/01 03:16:06;;;;;;;1.33;1.20;;;23.80;56.30;;;;;;5019038;28;20193;-46
2022/07/01 03:18:32;;;;;;;0.90;0.90;;;23.80;56.80;;;;;;5021625;28;20212;-45
2022/07/01 03:20:58;;;;;;;1.03;0.97;;;23.80;56.60;;;;;;5028597;28;20275;-46
2022/07/01 03:23:23;;;;;;;1.50;1.10;;;23.80;56.00;;;;;;5027785;28;20250;-48
2022/07/01 03:25:49;;;;;;;1.93;0.83;;;23.70;55.80;;;;;;5034726;28;20251;-45
2022/07/01 03:28:15;;;;;;;1.37;0.90;;;23.50;55.40;;;;;;5030479;28;20902;-45
2022/07/01 03:30:40;;;;;;;0.70;0.70;;;23.40;56.00;;;;;;5023189;28;20213;-45
2022/07/01 03:33:06;;;;;;;0.80;0.80;;;23.40;56.60;;;;;;5026451;28;20190;-45
2022/07/01 03:35:39;;;;;;;2.53;0.90;;;23.30;57.00;;;;;;5021442;28;20688;-45
2022/07/01 03:38:05;;;;;;;1.47;1.37;;;23.20;56.70;;;;;;5022600;28;20201;-47
2022/07/01 03:40:34;;;;;;;0.90;0.90;;;23.10;56.50;;;;;;5025085;28;20808;-44
2022/07/01 03:43:00;;;;;;;0.90;0.90;;;23.00;57.30;;;;;;5030594;28;20490;-48
2022/07/01 03:45:26;;;;;;;4.20;1.20;;;23.00;57.00;;;;;;5031230;28;20458;-45
2022/07/01 03:47:52;;;;;;;1.43;0.90;;;23.00;56.80;;;;;;5025716;28;20487;-47
2022/07/01 03:50:20;;;;;;;0.80;0.80;;;22.90;57.00;;;;;;5017832;28;20203;-46
2022/07/01 03:52:46;;;;;;;0.90;0.90;;;23.00;57.90;;;;;;5009232;28;20563;-45
2022/07/01 03:55:12;;;;;;;1.87;0.80;;;23.10;58.00;;;;;;5017259;28;20448;-47
2022/07/01 03:57:38;;;;;;;1.00;1.00;;;23.10;58.00;;;;;;5029257;28;20698;-47
2022/07/01 04:00:08;;;;;;;1.10;1.00;;;23.20;58.40;;;;;;5016621;28;20437;-48
2022/07/01 04:02:33;;;;;;;1.13;0.90;;;23.40;57.60;;;;;;5025024;28;20456;-45
2022/07/01 04:04:59;;;;;;;1.47;0.90;;;23.20;56.10;;;;;;5018476;28;20440;-46
2022/07/01 04:07:25;;;;;;;1.47;0.93;;;22.90;55.90;;;;;;5023907;28;20236;-45
2022/07/01 04:09:52;;;;;;;1.23;1.00;;;22.80;56.80;;;;;;5018930;28;20243;-47
2022/07/01 04:12:18;;;;;;;1.43;1.10;;;22.80;57.80;;;;;;5020831;28;20483;-47
2022/07/01 04:14:44;;;;;;;1.27;1.00;;;22.80;57.50;;;;;;5035899;28;20930;-45
2022/07/01 04:17:10;;;;;;;3.17;0.87;;;22.80;57.20;;;;;;5030299;28;20432;-45
2022/07/01 04:19:35;;;;;;;0.80;0.80;;;22.80;57.40;;;;;;5022506;28;20444;-46
2022/07/01 04:24:45;;;;;;;2.57;1.27;;;22.70;57.30;;;;;;5025832;28;20208;-47
2022/07/01 04:27:11;;;;;;;1.27;1.00;;;22.60;57.30;;;;;;5016564;28;20846;-45
2022/07/01 04:29:37;;;;;;;1.40;1.30;;;22.50;57.70;;;;;;5024906;28;20682;-48
2022/07/01 04:32:02;;;;;;;1.73;1.10;;;22.20;58.80;;;;;;5018457;28;20202;-47
2022/07/01 04:34:28;;;;;;;1.17;1.07;;;22.00;61.30;;;;;;5019829;28;20555;-45
2022/07/01 04:36:54;;;;;;;1.23;1.00;;;22.00;61.60;;;;;;5028722;28;20191;-45
2022/07/01 04:39:19;;;;;;;1.20;1.10;;;22.10;61.10;;;;;;5040872;28;20194;-45
2022/07/01 04:42:00;;;;;;;1.73;1.20;;;22.10;60.60;;;;;;5025887;28;20247;-48
2022/07/01 04:44:34;;;;;;;3.37;1.40;;;22.10;61.30;;;;;;5030767;28;20200;-45
2022/07/01 04:47:01;;;;;;;2.53;1.20;;;22.00;61.20;;;;;;5019575;28;20483;-47
2022/07/01 04:49:27;;;;;;;4.47;1.13;;;22.10;61.60;;;;;;5030055;28;20432;-45
2022/07/01 04:51:53;;;;;;;1.53;1.43;;;22.30;61.00;;;;;;5027919;28;20479;-46
2022/07/01 04:54:19;;;;;;;1.33;1.23;;;22.40;60.80;;;;;;5028658;28;20436;-46
2022/07/01 04:56:45;;;;;;;1.37;1.27;;;22.50;59.50;;;;;;5028879;28;20450;-45
2022/07/01 04:59:12;;;;;;;1.20;1.07;;;22.50;59.80;;;;;;5027482;28;21011;-45
2022/07/01 05:01:38;;;;;;;1.30;1.20;;;22.60;59.40;;;;;;5030324;28;20205;-46
2022/07/01 05:04:03;;;;;;;1.70;1.43;;;22.70;59.30;;;;;;5035822;28;20782;-45
2022/07/01 05:06:29;;;;;;;1.00;0.97;;;22.60;59.20;;;;;;5029400;28;20313;-45
2022/07/01 05:08:55;;;;;;;2.03;1.30;;;22.70;59.50;;;;;;5011873;28;20209;-45
2022/07/01 05:11:21;;;;;;;1.50;1.40;;;22.70;59.50;;;;;;5034705;28;20200;-47
2022/07/01 05:13:46;;;;;;;1.97;1.20;;;22.80;59.10;;;;;;5038556;28;20200;-49
2022/07/01 05:16:12;;;;;;;2.03;1.40;;;22.90;59.00;;;;;;5023347;28;20336;-47
2022/07/01 05:24:06;;;;;;;1.77;1.67;;;23.60;56.10;;;;;;5027614;28;20530;-46
2022/07/01 05:26:32;;;;;;;1.47;1.37;;;23.40;56.10;;;;;;5026845;28;20510;-45
2022/07/01 05:28:58;;;;;;;1.93;1.83;;;23.30;56.30;;;;;;5032098;28;20922;-45
2022/07/01 05:31:23;;;;;;;1.70;1.60;;;23.10;56.70;;;;;;5031040;28;20213;-45
2022/07/01 05:33:49;;;;;;;1.50;1.40;;;22.90;56.80;;;;;;5027017;28;20875;-45
2022/07/01 05:36:15;;;;;;;2.63;2.43;;;22.70;57.30;;;;;;5026166;28;20219;-48
2022/07/01 05:38:41;;;;;;;3.20;1.50;;;22.50;57.40;;;;;;5030146;28;20196;-46
2022/07/01 05:41:07;;;;;;;3.37;1.93;;;22.40;58.10;;;;;;5027308;28;20440;-45
2022/07/01 05:43:33;;;;;;;1.83;1.63;;;22.30;58.10;;;;;;5028534;28;20239;-45
2022/07/01 05:45:59;;;;;;;2.37;2.13;;;22.20;58.60;;;;;;5023429;28;20228;-46
2022/07/01 05:48:25;;;;;;;2.60;2.00;;;22.20;58.70;;;;;;5030069;28;20525;-45
2022/07/01 05:50:51;;;;;;;2.53;2.33;;;22.10;59.00;;;;;;5035376;28;20462;-44
2022/07/01 05:53:17;;;;;;;3.40;2.07;;;22.10;59.30;;;;;;5032726;28;20197;-45
2022/07/01 05:55:42;;;;;;;2.60;1.57;;;22.00;59.60;;;;;;5031913;28;20197;-48
2022/07/01 05:58:10;;;;;;;2.57;2.20;;;22.00;59.90;;;;;;5033273;28;20227;-45
2022/07/01 06:00:35;;;;;;;2.50;2.03;;;21.80;59.60;;;;;;5033985;28;20224;-45
2022/07/01 06:03:01;;;;;;;2.00;1.90;;;21.70;60.10;;;;;;5030297;28;20467;-46
2022/07/01 06:05:27;;;;;;;1.93;1.77;;;21.60;60.40;;;;;;5032803;28;20272;-46
2022/07/01 06:07:52;;;;;;;1.63;1.53;;;21.60;60.60;;;;;;5030322;28;20638;-45
2022/07/01 06:10:18;;;;;;;2.53;2.33;;;21.50;60.90;;;;;;5036303;28;20193;-45
2022/07/01 06:12:44;;;;;;;3.83;1.77;;;21.60;61.10;;;;;;5036333;28;20199;-45
2022/07/01 06:15:12;;;;;;;1.70;1.60;;;21.50;61.20;;;;;;5034828;28;20581;-47
2022/07/01 06:17:40;;;;;;;2.10;1.90;;;21.40;61.40;;;;;;5035933;28;20200;-45
2022/07/01 06:20:07;;;;;;;5.40;1.90;;;21.40;61.60;;;;;;5040733;28;20452;-45
2022/07/01 06:22:33;;;;;;;1.57;1.47;;;21.30;61.80;;;;;;5039641;28;20962;-45
2022/07/01 06:24:59;;;;;;;5.03;1.70;;;21.30;62.00;;;;;;5031217;28;20443;-45
2022/07/01 06:27:25;;;;;;;1.97;1.80;;;21.30;62.00;;;;;;5033117;28;20495;-45
2022/07/01 06:29:52;;;;;;;2.07;1.87;;;21.40;61.90;;;;;;5036592;28;20861;-45
2022/07/01 06:32:17;;;;;;;2.67;1.90;;;21.40;61.60;;;;;;5031197;28;21105;-45
2022/07/01 06:34:43;;;;;;;2.40;2.20;;;21.40;61.70;;;;;;5029931;28;20475;-47
2022/07/01 06:37:09;;;;;;;1.90;1.80;;;21.40;61.60;;;;;;5029379;28;20255;-45
2022/07/01 06:39:34;;;;;;;1.90;1.70;;;21.40;61.70;;;;;;5038250;28;20287;-48
2022/07/01 06:42:00;;;;;;;2.10;2.00;;;21.40;62.20;;;;;;5041488;28;20205;-45
2022/07/01 06:44:26;;;;;;;2.07;1.70;;;21.50;62.20;;;;;;5023966;28;20193;-48
2022/07/01 06:46:51;;;;;;;2.83;1.90;;;21.50;62.20;;;;;;5030242;28;20555;-45
2022/07/01 06:49:17;;;;;;;3.20;1.60;;;21.50;62.10;;;;;;5032540;28;20258;-47
2022/07/01 06:51:43;;;;;;;2.90;2.13;;;21.50;61.90;;;;;;5026325;28;20336;-50
2022/07/01 06:54:09;;;;;;;1.70;1.60;;;21.50;62.00;;;;;;5028905;28;20451;-48
2022/07/01 06:56:35;;;;;;;1.90;1.60;;;21.60;62.10;;;;;;5031126;28;20501;-46
2022/07/01 06:59:01;;;;;;;2.07;1.80;;;21.50;62.30;;;;;;5030235;28;20194;-46
2022/07/01 07:01:28;;;;;;;1.60;1.50;;;21.50;62.40;;;;;;5031924;28;20405;-46
2022/07/01 07:03:53;;;;;;;1.87;1.50;;;21.30;62.90;;;;;;5032776;28;20494;-47
2022/07/01 07:06:19;;;;;;;1.50;1.30;;;21.30;63.70;;;;;;5038026;28;21186;-45
2022/07/01 07:08:45;;;;;;;2.03;1.30;;;21.10;63.50;;;;;;5030997;28;20557;-46
2022/07/01 07:11:14;;;;;;;1.30;1.20;;;21.00;64.10;;;;;;5031670;28;20186;-50
2022/07/01 07:13:41;;;;;;;1.33;1.23;;;20.90;64.50;;;;;;5029766;28;20560;-47
2022/07/01 07:16:07;;;;;;;1.50;1.40;;;20.90;64.40;;;;;;5030620;28;21010;-46
2022/07/01 07:18:33;;;;;;;1.40;1.30;;;20.90;64.40;;;;;;5031943;28;20435;-46
2022/07/01 07:20:59;;;;;;;1.07;1.07;;;20.90;64.80;;;;;;5031546;28;20438;-46
2022/07/01 07:23:25;;;;;;;1.80;1.50;;;20.80;64.70;;;;;;5031654;28;20919;-46
2022/07/01 07:25:50;;;;;;;1.93;1.30;;;21.00;64.80;;;;;;5030870;28;20220;-46
2022/07/01 07:28:16;;;;;;;1.47;1.10;;;20.90;64.20;;;;;;5031056;28;20311;-47
2022/07/01 07:30:42;;;;;;;5.10;1.20;;;20.70;64.50;;;;;;5031644;28;20189;-47
2022/07/01 07:33:07;;;;;;;1.67;1.20;;;20.80;64.60;;;;;;5031382;28;20633;-48
2022/07/01 07:35:33;;;;;;;1.33;1.23;;;20.80;64.90;;;;;;5031004;28;20540;-46
2022/07/01 07:37:58;;;;;;;3.10;1.90;;;20.90;65.20;;;;;;5029563;28;20247;-46
2022/07/01 07:40:25;;;;;;;1.73;1.50;;;20.90;64.90;;;;;;5030977;28;20193;-46
2022/07/01 07:42:50;;;;;;;1.73;1.20;;;21.00;64.90;;;;;;5029946;28;20236;-47
2022/07/01 07:45:16;;;;;;;1.50;1.40;;;21.00;64.80;;;;;;5031574;28;20455;-46
2022/07/01 07:47:44;;;;;;;1.40;1.30;;;21.10;64.80;;;;;;5029946;28;20233;-46
2022/07/01 07:50:10;;;;;;;2.80;1.60;;;21.10;64.50;;;;;;5031214;28;20209;-47
2022/07/01 07:52:36;;;;;;;2.03;1.70;;;21.10;64.60;;;;;;5030633;28;20468;-46
2022/07/01 07:55:03;;;;;;;1.50;1.40;;;21.10;64.60;;;;;;5031545;28;20453;-46
2022/07/01 07:57:29;;;;;;;1.60;1.50;;;21.10;64.60;;;;;;5028936;28;21124;-47
2022/07/01 07:59:55;;;;;;;1.53;1.30;;;21.10;64.50;;;;;;5032212;28;20439;-46
2022/07/01 08:02:21;;;;;;;1.77;1.67;;;21.20;64.40;;;;;;5030705;28;20428;-47
2022/07/01 08:04:47;;;;;;;4.70;1.40;;;21.30;64.00;;;;;;5030854;28;20937;-47
2022/07/01 08:07:12;;;;;;;1.50;1.20;;;21.30;64.00;;;;;;5029391;28;20224;-47
2022/07/01 08:09:38;;;;;;;1.73;1.47;;;21.40;64.10;;;;;;5029296;28;20665;-46
2022/07/01 08:12:04;;;;;;;3.40;1.70;;;21.40;64.00;;;;;;5029453;28;20246;-46
2022/07/01 08:14:30;;;;;;;1.37;1.27;;;21.50;63.90;;;;;;5032434;28;20683;-46
2022/07/01 08:16:55;;;;;;;1.60;1.50;;;21.50;63.60;;;;;;5035650;28;20189;-49
2022/07/01 08:19:21;;;;;;;3.37;1.80;;;21.60;63.40;;;;;;5029201;28;20235;-49
2022/07/01 08:21:46;;;;;;;2.00;1.50;;;21.60;62.60;;;;;;5028515;28;20189;-47
2022/07/01 08:24:12;;;;;;;1.50;1.40;;;21.50;62.60;;;;;;5026476;28;20196;-47
2022/07/01 08:26:38;;;;;;;1.53;1.40;;;21.60;62.50;;;;;;5031834;28;20217;-46
2022/07/01 08:29:03;;;;;;;2.10;1.90;;;21.60;62.80;;;;;;5035018;28;20201;-45
2022/07/01 08:31:31;;;;;;;2.33;2.13;;;21.60;63.00;;;;;;5030788;28;20204;-44
2022/07/01 08:33:57;;;;;;;1.30;1.20;;;21.60;63.70;;;;;;5025129;28;20202;-45
2022/07/01 08:36:23;;;;;;;2.30;1.60;;;21.50;63.60;;;;;;5027502;28;20451;-47
2022/07/01 08:38:49;;;;;;;2.53;2.33;;;21.50;64.10;;;;;;5024454;28;20981;-45
2022/07/01 08:41:15;;;;;;;4.77;1.70;;;21.50;64.00;;;;;;5029986;28;20276;-45
2022/07/01 08:43:40;;;;;;;2.97;1.77;;;21.50;63.60;;;;;;5027154;28;20531;-45
2022/07/01 08:46:07;;;;;;;1.60;1.40;;;21.50;63.40;;;;;;5029572;28;20220;-46
2022/07/01 08:48:33;;;;;;;1.60;1.50;;;21.50;63.00;;;;;;5027714;28;20201;-46
2022/07/01 08:51:03;;;;;;;2.70;1.80;;;21.60;62.40;;;;;;5030050;28;20472;-45
2022/07/01 08:53:30;;;;;;;1.70;1.60;;;21.70;62.00;;;;;;5035306;28;20448;-46
2022/07/01 08:58:41;;;;;;;1.10;1.00;;;21.80;61.50;;;;;;5038863;28;20445;-46
2022/07/01 09:01:20;;;;;;;3.17;1.33;;;21.70;61.20;;;;;;5035010;28;21007;-46
2022/07/01 09:03:47;;;;;;;1.50;1.40;;;21.70;60.60;;;;;;5027309;28;20197;-48
2022/07/01 09:06:17;;;;;;;1.80;1.50;;;21.70;61.30;;;;;;5036741;28;20455;-48
2022/07/01 09:08:43;;;;;;;1.93;1.47;;;21.70;61.30;;;;;;5028014;28;21282;-45
2022/07/01 09:11:18;;;;;;;2.77;1.60;;;21.70;61.10;;;;;;5026962;28;20451;-46
2022/07/01 09:13:45;;;;;;;1.70;1.60;;;21.60;61.50;;;;;;5024060;28;20951;-46
2022/07/01 09:16:15;;;;;;;1.90;1.80;;;21.70;61.70;;;;;;5034059;28;20927;-45
2022/07/01 09:19:07;;;;;;;1.83;1.73;;;21.60;61.80;;;;;;5031397;28;20443;-48
2022/07/01 09:21:33;;;;;;;2.73;1.30;;;21.60;62.00;;;;;;5027257;28;20447;-47
2022/07/01 09:24:03;;;;;;;1.60;1.50;;;21.60;61.60;;;;;;5041513;28;20803;-50
2022/07/01 09:26:29;;;;;;;2.50;1.80;;;21.60;61.80;;;;;;5029417;28;20280;-48
2022/07/01 09:28:56;;;;;;;1.83;1.60;;;21.50;61.90;;;;;;5036113;28;20443;-49
2022/07/01 09:31:47;;;;;;;1.70;1.60;;;21.50;61.70;;;;;;5032351;28;20791;-48
2022/07/01 09:34:13;;;;;;;2.50;2.13;;;21.60;61.80;;;;;;5034974;28;20454;-46
2022/07/01 09:36:40;;;;;;;4.93;2.60;;;21.70;62.10;;;;;;5028702;28;20440;-48
2022/07/01 09:39:06;;;;;;;2.43;2.23;;;21.70;61.90;;;;;;5033742;28;20660;-46
2022/07/01 09:41:37;;;;;;;2.43;2.23;;;21.70;62.00;;;;;;5048284;28;20463;-49
2022/07/01 09:44:05;;;;;;;2.13;1.93;;;21.60;62.50;;;;;;5032486;28;20440;-46
2022/07/01 09:46:30;;;;;;;2.50;2.30;;;21.60;62.70;;;;;;5034478;28;20604;-49
2022/07/01 09:48:56;;;;;;;1.97;1.87;;;21.60;63.00;;;;;;5035983;28;20549;-46
2022/07/01 09:51:22;;;;;;;2.60;2.17;;;21.60;63.00;;;;;;5041167;28;20225;-49
2022/07/01 09:53:47;;;;;;;2.60;2.40;;;21.60;62.80;;;;;;5035544;28;20213;-46
2022/07/01 09:56:13;;;;;;;2.70;2.50;;;21.70;62.70;;;;;;5029733;28;20182;-48
2022/07/01 09:58:39;;;;;;;2.83;2.63;;;21.80;62.80;;;;;;5029694;28;20189;-48
2022/07/01 10:01:07;;;;;;;2.83;2.63;;;21.80;62.20;;;;;;5039118;28;20592;-49
2022/07/01 10:03:33;;;;;;;2.40;2.20;;;21.80;62.10;;;;;;5030427;28;20673;-47
2022/07/01 10:06:33;;;;;;;2.83;2.63;;;21.80;61.90;;;;;;5035727;28;20444;-47
2022/07/01 10:09:04;;;;;;;3.73;3.43;;;21.90;61.70;;;;;;5023633;28;20822;-48
2022/07/01 10:11:42;;;;;;;2.00;1.90;;;21.90;61.90;;;;;;5043748;28;20810;-48
2022/07/01 10:14:10;;;;;;;2.73;2.53;;;22.00;61.50;;;;;;5030571;28;20947;-49
2022/07/01 10:16:38;;;;;;;2.00;1.87;;;22.00;61.30;;;;;;5029749;28;20451;-49
2022/07/01 10:19:23;;;;;;;1.90;1.80;;;22.00;61.40;;;;;;5030278;28;20808;-48
2022/07/01 10:21:51;;;;;;;2.53;2.33;;;22.10;61.70;;;;;;5042285;28;20452;-48
2022/07/01 10:24:18;;;;;;;4.63;2.20;;;22.20;62.00;;;;;;5031865;28;20501;-46
2022/07/01 10:26:45;;;;;;;2.10;2.00;;;22.30;62.00;;;;;;5031285;28;22639;-50
2022/07/01 10:29:32;;;;;;;2.10;2.00;;;22.40;61.80;;;;;;5029038;28;20527;-47
2022/07/01 10:32:27;;;;;;;3.57;1.40;;;22.40;60.90;;;;;;5027110;28;20486;-47
2022/07/01 10:35:04;;;;;;;2.03;1.93;;;22.40;60.30;;;;;;5031955;28;20451;-45
2022/07/01 10:37:30;;;;;;;2.20;2.00;;;22.50;60.40;;;;;;5027244;28;20443;-46
2022/07/01 10:40:00;;;;;;;2.83;2.40;;;22.50;60.40;;;;;;5031379;28;20455;-47
2022/07/01 10:42:30;;;;;;;2.30;2.03;;;22.60;60.60;;;;;;5034247;28;20863;-48
2022/07/01 10:45:01;;;;;;;3.23;2.07;;;22.80;61.30;;;;;;5033827;28;21024;-46
2022/07/01 10:47:27;;;;;;;2.20;2.00;;;23.00;59.70;;;;;;5035535;28;20495;-47
2022/07/01 10:49:56;;;;;;;2.73;2.53;;;23.10;59.50;;;;;;5031546;28;20502;-49
2022/07/01 10:52:22;;;;;;;1.90;1.80;;;23.30;59.30;;;;;;5036894;28;20708;-48
2022/07/01 10:54:53;;;;;;;2.53;1.33;;;23.30;58.50;;;;;;5040991;28;20805;-49
2022/07/01 10:57:20;;;;;;;2.63;1.63;;;23.40;57.40;;;;;;5030450;28;20452;-46
2022/07/01 11:00:15;;;;;;;1.90;1.80;;;23.40;57.40;;;;;;5029409;28;20440;-47
2022/07/01 11:02:40;;;;;;;2.00;1.63;;;23.10;57.20;;;;;;5030275;28;20448;-49
2022/07/01 11:05:14;;;;;;;3.23;1.97;;;23.00;58.20;;;;;;5030871;28;20789;-46
2022/07/01 11:07:45;;;;;;;1.50;1.40;;;23.10;58.70;;;;;;5030444;28;20232;-47
2022/07/01 11:10:14;;;;;;;1.80;1.70;;;23.30;58.90;;;;;;5039751;28;20839;-45
2022/07/01 11:12:41;;;;;;;3.53;1.80;;;23.50;58.30;;;;;;5041042;28;20452;-48
2022/07/01 11:15:10;;;;;;;2.10;1.90;;;23.70;58.80;;;;;;5036657;28;20949;-47
2022/07/01 11:17:43;;;;;;;2.10;1.30;;;23.70;57.10;;;;;;5031124;28;20458;-49
2022/07/01 11:20:09;;;;;;;2.07;1.50;;;23.80;56.60;;;;;;5031460;28;20451;-49
2022/07/01 11:22:35;;;;;;;1.83;1.63;;;23.80;56.60;;;;;;5023835;28;20535;-46
2022/07/01 11:25:07;;;;;;;1.83;1.67;;;23.80;56.20;;;;;;5030831;28;20559;-45
2022/07/01 11:27:34;;;;;;;1.33;1.23;;;23.90;56.50;;;;;;5034248;28;20483;-48
2022/07/01 11:30:04;;;;;;;1.33;1.23;;;23.90;56.80;;;;;;5028615;28;20990;-46
2022/07/01 11:32:35;;;;;;;2.23;1.70;;;23.90;55.90;;;;;;5021858;28;20493;-49
2022/07/01 11:35:02;;;;;;;3.00;1.50;;;24.00;56.20;;;;;;5037908;28;20447;-49
2022/07/01 11:40:17;;;;;;;1.50;1.40;;;24.30;54.40;;;;;;5029179;28;20454;-47
2022/07/01 11:42:44;;;;;;;1.90;1.40;;;24.30;57.20;;;;;;5044902;28;20431;-46
2022/07/01 11:45:25;;;;;;;1.97;1.53;;;24.40;55.20;;;;;;5038135;28;20439;-49
2022/07/01 11:47:51;;;;;;;1.00;1.00;;;24.50;54.90;;;;;;5035102;28;20491;-48
2022/07/01 11:50:16;;;;;;;2.07;1.20;;;24.60;53.60;;;;;;5041352;28;20517;-49
2022/07/01 11:52:42;;;;;;;2.30;1.70;;;24.60;53.20;;;;;;5034033;28;20328;-48
2022/07/01 11:55:08;;;;;;;2.03;1.30;;;24.60;53.00;;;;;;5025230;28;20224;-50
2022/07/01 11:57:34;;;;;;;1.97;1.67;;;24.40;52.20;;;;;;5023425;28;20262;-46
2022/07/01 12:00:11;;;;;;;2.53;1.70;;;24.50;53.80;;;;;;5030194;28;20197;-47
2022/07/01 12:02:43;;;;;;;1.37;1.27;;;24.60;53.60;;;;;;5117880;27;20595;-50
2022/07/01 12:05:09;;;;;;;1.53;1.43;;;24.70;53.30;;;;;;5127932;27;20615;-49
2022/07/01 12:07:35;;;;;;;1.30;1.20;;;24.80;53.70;;;;;;5134171;27;20505;-46
2022/07/01 12:10:03;;;;;;;2.70;1.43;;;24.80;53.40;;;;;;5128475;27;20197;-48
2022/07/01 12:12:30;;;;;;;1.73;1.00;;;25.00;53.00;;;;;;5135946;27;20189;-49
2022/07/01 12:14:58;;;;;;;1.67;1.27;;;25.10;53.10;;;;;;5132301;27;20443;-49
2022/07/01 12:17:25;;;;;;;1.47;1.10;;;25.20;53.20;;;;;;5136092;27;20423;-50
2022/07/01 12:19:53;;;;;;;1.87;1.50;;;25.10;51.80;;;;;;5134740;27;20858;-49
2022/07/01 12:22:24;;;;;;;2.17;1.47;;;25.30;52.00;;;;;;5128516;27;20482;-46
2022/07/01 12:25:04;;;;;;;1.47;1.37;;;25.50;50.80;;;;;;5115386;27;20438;-46
2022/07/01 12:27:38;;;;;;;2.10;1.50;;;25.70;50.90;;;;;;5126533;27;20489;-45
2022/07/01 12:30:06;;;;;;;1.60;1.40;;;25.80;51.60;;;;;;5126057;27;20479;-45
2022/07/01 12:32:35;;;;;;;2.03;1.50;;;25.80;49.80;;;;;;5119595;28;20524;-46
2022/07/01 12:35:03;;;;;;;2.03;1.50;;;25.50;48.20;;;;;;5134322;27;20969;-46
2022/07/01 12:37:31;;;;;;;2.73;1.30;;;25.50;49.30;;;;;;5136347;27;20436;-45
2022/07/01 12:40:00;;;;;;;1.70;1.60;;;25.50;50.40;;;;;;5135436;27;20915;-45
2022/07/01 12:42:38;;;;;;;1.70;1.60;;;25.70;51.10;;;;;;5125938;27;20479;-47
2022/07/01 12:45:06;;;;;;;4.20;1.70;;;25.80;50.60;;;;;;5131911;27;20476;-47
2022/07/01 12:47:34;;;;;;;2.60;1.60;;;25.90;50.10;;;;;;5135367;27;20474;-45
2022/07/01 12:50:12;;;;;;;2.17;1.53;;;26.00;50.20;;;;;;5126248;27;21033;-45
2022/07/01 12:52:42;;;;;;;1.87;1.37;;;26.10;50.80;;;;;;5116389;27;20822;-46
2022/07/01 12:55:17;;;;;;;1.50;1.40;;;26.10;49.80;;;;;;5124235;27;20440;-46
2022/07/01 12:57:45;;;;;;;2.93;1.20;;;26.10;48.40;;;;;;5119626;27;20520;-46
2022/07/01 13:00:11;;;;;;;2.03;1.40;;;26.20;48.60;;;;;;5126231;27;20424;-46
2022/07/01 13:02:37;;;;;;;1.70;1.60;;;26.20;49.20;;;;;;5127944;27;20486;-45
2022/07/01 13:05:03;;;;;;;1.73;1.60;;;26.30;48.40;;;;;;5125055;27;20859;-46